sensor_id;sensor_type;location;lat;lon;timestamp;P1;durP1;ratioP1;P2;durP2;ratioP2
51190;SDS011;37253;48.736;9.294;2023-04-03T00:00:31;1.27;;;0.50;;
51190;SDS011;37253;48.736;9.294;2023-04-03T00:02:31;1.25;;;0.60;;
51190;SDS011;37253;48.736;9.294;2023-04-03T00:04:31;0.88;;;0.52;;
51190;SDS011;37253;48.736;9.294;2023-04-03T00:06:32;0.70;;;0.50;;
51190;SDS011;37253;48.736;9.294;2023-04-03T00:08:32;0.80;;;0.52;;
51190;SDS011;37253;48.736;9.294;2023-04-03T00:10:33;0.57;;;0.47;;
51190;SDS011;37253;48.736;9.294;2023-04-03T00:12:33;1.58;;;0.50;;
51190;SDS011;37253;48.736;9.294;2023-04-03T00:14:33;0.82;;;0.50;;
51190;SDS011;37253;48.736;9.294;2023-04-03T00:16:34;0.70;;;0.50;;
51190;SDS011;37253;48.736;9.294;2023-04-03T00:18:34;0.52;;;0.50;;
51190;SDS011;37253;48.736;9.294;2023-04-03T00:20:35;0.50;;;0.50;;
51190;SDS011;37253;48.736;9.294;2023-04-03T00:22:35;0.60;;;0.50;;
51190;SDS011;37253;48.736;9.294;2023-04-03T00:24:35;1.23;;;0.50;;
51190;SDS011;37253;48.736;9.294;2023-04-03T00:26:36;0.70;;;0.32;;
51190;SDS011;37253;48.736;9.294;2023-04-03T00:28:36;0.90;;;0.55;;
51190;SDS011;37253;48.736;9.294;2023-04-03T00:30:36;0.52;;;0.50;;
51190;SDS011;37253;48.736;9.294;2023-04-03T00:32:37;0.60;;;0.50;;
51190;SDS011;37253;48.736;9.294;2023-04-03T00:34:37;0.95;;;0.50;;
51190;SDS011;37253;48.736;9.294;2023-04-03T00:36:37;0.50;;;0.50;;
51190;SDS011;37253;48.736;9.294;2023-04-03T00:38:38;1.02;;;0.60;;
51190;SDS011;37253;48.736;9.294;2023-04-03T00:40:39;0.63;;;0.50;;
51190;SDS011;37253;48.736;9.294;2023-04-03T00:42:43;0.70;;;0.50;;
51190;SDS011;37253;48.736;9.294;2023-04-03T00:46:45;0.70;;;0.50;;
51190;SDS011;37253;48.736;9.294;2023-04-03T00:48:48;0.47;;;0.47;;
51190;SDS011;37253;48.736;9.294;2023-04-03T00:52:49;1.17;;;0.50;;
51190;SDS011;37253;48.736;9.294;2023-04-03T00:54:51;0.60;;;0.50;;
51190;SDS011;37253;48.736;9.294;2023-04-03T00:56:53;0.60;;;0.50;;
51190;SDS011;37253;48.736;9.294;2023-04-03T00:58:59;0.52;;;0.40;;
51190;SDS011;37253;48.736;9.294;2023-04-03T01:01:03;1.48;;;0.57;;
51190;SDS011;37253;48.736;9.294;2023-04-03T01:03:06;0.50;;;0.50;;
51190;SDS011;37253;48.736;9.294;2023-04-03T01:05:07;0.65;;;0.50;;
51190;SDS011;37253;48.736;9.294;2023-04-03T01:07:13;0.73;;;0.55;;
51190;SDS011;37253;48.736;9.294;2023-04-03T01:09:19;0.63;;;0.50;;
51190;SDS011;37253;48.736;9.294;2023-04-03T01:11:20;1.55;;;0.50;;
51190;SDS011;37253;48.736;9.294;2023-04-03T01:15:28;0.80;;;0.50;;
51190;SDS011;37253;48.736;9.294;2023-04-03T01:17:36;0.40;;;0.40;;
51190;SDS011;37253;48.736;9.294;2023-04-03T01:19:37;0.93;;;0.50;;
51190;SDS011;37253;48.736;9.294;2023-04-03T01:21:46;0.68;;;0.50;;
51190;SDS011;37253;48.736;9.294;2023-04-03T01:23:57;0.60;;;0.50;;
51190;SDS011;37253;48.736;9.294;2023-04-03T01:26:03;1.05;;;0.60;;
51190;SDS011;37253;48.736;9.294;2023-04-03T01:28:04;1.38;;;0.60;;
51190;SDS011;37253;48.736;9.294;2023-04-03T01:30:05;0.50;;;0.50;;
51190;SDS011;37253;48.736;9.294;2023-04-03T01:32:06;0.60;;;0.50;;
51190;SDS011;37253;48.736;9.294;2023-04-03T01:34:07;0.70;;;0.50;;
51190;SDS011;37253;48.736;9.294;2023-04-03T01:36:09;1.33;;;0.57;;
51190;SDS011;37253;48.736;9.294;2023-04-03T01:38:15;0.82;;;0.57;;
51190;SDS011;37253;48.736;9.294;2023-04-03T01:40:16;1.38;;;0.57;;
51190;SDS011;37253;48.736;9.294;2023-04-03T01:42:16;3.80;;;0.70;;
51190;SDS011;37253;48.736;9.294;2023-04-03T01:44:17;0.50;;;0.50;;
51190;SDS011;37253;48.736;9.294;2023-04-03T01:46:17;0.65;;;0.57;;
51190;SDS011;37253;48.736;9.294;2023-04-03T01:48:18;0.60;;;0.50;;
51190;SDS011;37253;48.736;9.294;2023-04-03T01:50:19;0.60;;;0.52;;
51190;SDS011;37253;48.736;9.294;2023-04-03T01:52:20;2.15;;;0.57;;
51190;SDS011;37253;48.736;9.294;2023-04-03T01:54:20;0.45;;;0.45;;
51190;SDS011;37253;48.736;9.294;2023-04-03T01:56:21;0.68;;;0.52;;
51190;SDS011;37253;48.736;9.294;2023-04-03T01:58:21;0.50;;;0.50;;
51190;SDS011;37253;48.736;9.294;2023-04-03T02:00:22;1.00;;;0.60;;
51190;SDS011;37253;48.736;9.294;2023-04-03T02:02:22;0.50;;;0.50;;
51190;SDS011;37253;48.736;9.294;2023-04-03T02:04:22;0.50;;;0.50;;
51190;SDS011;37253;48.736;9.294;2023-04-03T02:06:23;2.25;;;0.60;;
51190;SDS011;37253;48.736;9.294;2023-04-03T02:08:23;1.70;;;0.50;;
51190;SDS011;37253;48.736;9.294;2023-04-03T02:10:23;0.50;;;0.50;;
51190;SDS011;37253;48.736;9.294;2023-04-03T02:12:24;0.70;;;0.60;;
51190;SDS011;37253;48.736;9.294;2023-04-03T02:14:24;0.43;;;0.43;;
51190;SDS011;37253;48.736;9.294;2023-04-03T02:16:27;0.73;;;0.52;;
51190;SDS011;37253;48.736;9.294;2023-04-03T02:18:28;1.00;;;0.50;;
51190;SDS011;37253;48.736;9.294;2023-04-03T02:20:28;0.50;;;0.50;;
51190;SDS011;37253;48.736;9.294;2023-04-03T02:22:29;1.90;;;0.60;;
51190;SDS011;37253;48.736;9.294;2023-04-03T02:24:29;0.50;;;0.50;;
51190;SDS011;37253;48.736;9.294;2023-04-03T02:26:30;0.55;;;0.55;;
51190;SDS011;37253;48.736;9.294;2023-04-03T02:28:30;2.38;;;0.40;;
51190;SDS011;37253;48.736;9.294;2023-04-03T02:30:30;0.50;;;0.50;;
51190;SDS011;37253;48.736;9.294;2023-04-03T02:32:31;0.68;;;0.50;;
51190;SDS011;37253;48.736;9.294;2023-04-03T02:34:31;0.47;;;0.47;;
51190;SDS011;37253;48.736;9.294;2023-04-03T02:36:31;0.50;;;0.40;;
51190;SDS011;37253;48.736;9.294;2023-04-03T02:38:32;1.90;;;0.65;;
51190;SDS011;37253;48.736;9.294;2023-04-03T02:40:32;0.85;;;0.60;;
51190;SDS011;37253;48.736;9.294;2023-04-03T02:42:32;0.82;;;0.60;;
51190;SDS011;37253;48.736;9.294;2023-04-03T02:44:33;0.43;;;0.40;;
51190;SDS011;37253;48.736;9.294;2023-04-03T02:46:33;1.52;;;0.60;;
51190;SDS011;37253;48.736;9.294;2023-04-03T02:48:33;0.63;;;0.60;;
51190;SDS011;37253;48.736;9.294;2023-04-03T02:50:34;0.82;;;0.80;;
51190;SDS011;37253;48.736;9.294;2023-04-03T02:52:34;0.50;;;0.50;;
51190;SDS011;37253;48.736;9.294;2023-04-03T02:54:34;0.70;;;0.50;;
51190;SDS011;37253;48.736;9.294;2023-04-03T02:56:35;0.60;;;0.55;;
51190;SDS011;37253;48.736;9.294;2023-04-03T02:58:35;0.82;;;0.52;;
51190;SDS011;37253;48.736;9.294;2023-04-03T03:00:36;1.77;;;0.60;;
51190;SDS011;37253;48.736;9.294;2023-04-03T03:02:36;1.10;;;0.60;;
51190;SDS011;37253;48.736;9.294;2023-04-03T03:04:36;0.68;;;0.68;;
51190;SDS011;37253;48.736;9.294;2023-04-03T03:06:37;1.88;;;0.60;;
51190;SDS011;37253;48.736;9.294;2023-04-03T03:08:37;0.95;;;0.50;;
51190;SDS011;37253;48.736;9.294;2023-04-03T03:10:38;1.27;;;0.50;;
51190;SDS011;37253;48.736;9.294;2023-04-03T03:12:38;0.47;;;0.40;;
51190;SDS011;37253;48.736;9.294;2023-04-03T03:14:38;0.55;;;0.43;;
51190;SDS011;37253;48.736;9.294;2023-04-03T03:16:39;1.00;;;0.50;;
51190;SDS011;37253;48.736;9.294;2023-04-03T03:18:39;0.88;;;0.50;;
51190;SDS011;37253;48.736;9.294;2023-04-03T03:20:40;0.50;;;0.50;;
51190;SDS011;37253;48.736;9.294;2023-04-03T03:22:40;1.55;;;0.50;;
51190;SDS011;37253;48.736;9.294;2023-04-03T03:24:40;1.25;;;0.40;;
51190;SDS011;37253;48.736;9.294;2023-04-03T03:26:41;1.27;;;0.60;;
51190;SDS011;37253;48.736;9.294;2023-04-03T03:28:42;1.05;;;0.57;;
51190;SDS011;37253;48.736;9.294;2023-04-03T03:30:43;0.68;;;0.60;;
51190;SDS011;37253;48.736;9.294;2023-04-03T03:32:44;0.88;;;0.50;;
51190;SDS011;37253;48.736;9.294;2023-04-03T03:34:44;0.50;;;0.40;;
51190;SDS011;37253;48.736;9.294;2023-04-03T03:36:45;1.00;;;0.60;;
51190;SDS011;37253;48.736;9.294;2023-04-03T03:38:45;0.40;;;0.40;;
51190;SDS011;37253;48.736;9.294;2023-04-03T03:40:49;0.55;;;0.47;;
51190;SDS011;37253;48.736;9.294;2023-04-03T03:42:50;0.52;;;0.50;;
51190;SDS011;37253;48.736;9.294;2023-04-03T03:44:50;0.73;;;0.50;;
51190;SDS011;37253;48.736;9.294;2023-04-03T03:46:51;0.90;;;0.65;;
51190;SDS011;37253;48.736;9.294;2023-04-03T03:48:52;0.80;;;0.50;;
51190;SDS011;37253;48.736;9.294;2023-04-03T03:50:52;2.15;;;0.60;;
51190;SDS011;37253;48.736;9.294;2023-04-03T03:52:52;0.60;;;0.60;;
51190;SDS011;37253;48.736;9.294;2023-04-03T03:54:52;0.60;;;0.50;;
51190;SDS011;37253;48.736;9.294;2023-04-03T03:56:53;0.80;;;0.63;;
51190;SDS011;37253;48.736;9.294;2023-04-03T03:58:53;1.13;;;0.57;;
51190;SDS011;37253;48.736;9.294;2023-04-03T04:00:53;0.95;;;0.70;;
51190;SDS011;37253;48.736;9.294;2023-04-03T04:02:54;0.70;;;0.50;;
51190;SDS011;37253;48.736;9.294;2023-04-03T04:04:54;0.40;;;0.40;;
51190;SDS011;37253;48.736;9.294;2023-04-03T04:06:54;2.15;;;0.43;;
51190;SDS011;37253;48.736;9.294;2023-04-03T04:08:55;0.60;;;0.40;;
51190;SDS011;37253;48.736;9.294;2023-04-03T04:10:55;0.90;;;0.57;;
51190;SDS011;37253;48.736;9.294;2023-04-03T04:12:55;0.63;;;0.63;;
51190;SDS011;37253;48.736;9.294;2023-04-03T04:14:56;0.50;;;0.50;;
51190;SDS011;37253;48.736;9.294;2023-04-03T04:16:56;0.50;;;0.50;;
51190;SDS011;37253;48.736;9.294;2023-04-03T04:18:56;1.05;;;0.60;;
51190;SDS011;37253;48.736;9.294;2023-04-03T04:20:57;0.65;;;0.52;;
51190;SDS011;37253;48.736;9.294;2023-04-03T04:22:57;1.13;;;0.50;;
51190;SDS011;37253;48.736;9.294;2023-04-03T04:24:57;0.60;;;0.50;;
51190;SDS011;37253;48.736;9.294;2023-04-03T04:26:57;0.60;;;0.60;;
51190;SDS011;37253;48.736;9.294;2023-04-03T04:28:58;1.85;;;0.52;;
51190;SDS011;37253;48.736;9.294;2023-04-03T04:30:58;0.65;;;0.50;;
51190;SDS011;37253;48.736;9.294;2023-04-03T04:32:59;0.50;;;0.50;;
51190;SDS011;37253;48.736;9.294;2023-04-03T04:34:59;0.82;;;0.50;;
51190;SDS011;37253;48.736;9.294;2023-04-03T04:37:00;0.50;;;0.50;;
51190;SDS011;37253;48.736;9.294;2023-04-03T04:39:00;1.50;;;0.60;;
51190;SDS011;37253;48.736;9.294;2023-04-03T04:41:00;1.15;;;0.60;;
51190;SDS011;37253;48.736;9.294;2023-04-03T04:43:01;0.70;;;0.45;;
51190;SDS011;37253;48.736;9.294;2023-04-03T04:45:01;0.60;;;0.60;;
51190;SDS011;37253;48.736;9.294;2023-04-03T04:47:01;1.02;;;0.60;;
51190;SDS011;37253;48.736;9.294;2023-04-03T04:49:02;0.77;;;0.52;;
51190;SDS011;37253;48.736;9.294;2023-04-03T04:51:02;0.65;;;0.50;;
51190;SDS011;37253;48.736;9.294;2023-04-03T04:53:03;0.57;;;0.50;;
51190;SDS011;37253;48.736;9.294;2023-04-03T04:55:04;0.60;;;0.50;;
51190;SDS011;37253;48.736;9.294;2023-04-03T04:57:05;0.55;;;0.45;;
51190;SDS011;37253;48.736;9.294;2023-04-03T04:59:05;0.88;;;0.70;;
51190;SDS011;37253;48.736;9.294;2023-04-03T05:01:06;0.50;;;0.50;;
51190;SDS011;37253;48.736;9.294;2023-04-03T05:03:07;0.82;;;0.47;;
51190;SDS011;37253;48.736;9.294;2023-04-03T05:05:08;1.02;;;0.50;;
51190;SDS011;37253;48.736;9.294;2023-04-03T05:07:08;0.82;;;0.60;;
51190;SDS011;37253;48.736;9.294;2023-04-03T05:09:08;0.50;;;0.50;;
51190;SDS011;37253;48.736;9.294;2023-04-03T05:11:09;0.50;;;0.50;;
51190;SDS011;37253;48.736;9.294;2023-04-03T05:13:10;0.50;;;0.50;;
51190;SDS011;37253;48.736;9.294;2023-04-03T05:15:10;0.60;;;0.40;;
51190;SDS011;37253;48.736;9.294;2023-04-03T05:17:10;1.10;;;0.55;;
51190;SDS011;37253;48.736;9.294;2023-04-03T05:19:11;0.73;;;0.60;;
51190;SDS011;37253;48.736;9.294;2023-04-03T05:21:11;0.60;;;0.60;;
51190;SDS011;37253;48.736;9.294;2023-04-03T05:23:11;0.98;;;0.50;;
51190;SDS011;37253;48.736;9.294;2023-04-03T05:25:12;0.63;;;0.60;;
51190;SDS011;37253;48.736;9.294;2023-04-03T05:27:12;0.77;;;0.50;;
51190;SDS011;37253;48.736;9.294;2023-04-03T05:29:12;0.65;;;0.50;;
51190;SDS011;37253;48.736;9.294;2023-04-03T05:31:13;0.82;;;0.60;;
51190;SDS011;37253;48.736;9.294;2023-04-03T05:33:13;0.90;;;0.60;;
51190;SDS011;37253;48.736;9.294;2023-04-03T05:35:14;1.85;;;0.65;;
51190;SDS011;37253;48.736;9.294;2023-04-03T05:37:14;0.98;;;0.57;;
51190;SDS011;37253;48.736;9.294;2023-04-03T05:39:14;0.57;;;0.57;;
51190;SDS011;37253;48.736;9.294;2023-04-03T05:41:15;1.05;;;0.50;;
51190;SDS011;37253;48.736;9.294;2023-04-03T05:43:15;0.63;;;0.55;;
51190;SDS011;37253;48.736;9.294;2023-04-03T05:45:16;0.80;;;0.50;;
51190;SDS011;37253;48.736;9.294;2023-04-03T05:47:16;1.20;;;0.50;;
51190;SDS011;37253;48.736;9.294;2023-04-03T05:49:17;1.33;;;0.63;;
51190;SDS011;37253;48.736;9.294;2023-04-03T05:51:19;0.65;;;0.50;;
51190;SDS011;37253;48.736;9.294;2023-04-03T05:53:25;1.35;;;0.50;;
51190;SDS011;37253;48.736;9.294;2023-04-03T05:55:28;0.80;;;0.65;;
51190;SDS011;37253;48.736;9.294;2023-04-03T05:57:28;0.70;;;0.50;;
51190;SDS011;37253;48.736;9.294;2023-04-03T05:59:29;5.25;;;0.60;;
51190;SDS011;37253;48.736;9.294;2023-04-03T06:01:29;0.70;;;0.50;;
51190;SDS011;37253;48.736;9.294;2023-04-03T06:03:30;1.83;;;0.55;;
51190;SDS011;37253;48.736;9.294;2023-04-03T06:05:30;0.60;;;0.50;;
51190;SDS011;37253;48.736;9.294;2023-04-03T06:07:31;1.13;;;0.50;;
51190;SDS011;37253;48.736;9.294;2023-04-03T06:09:31;1.10;;;0.50;;
51190;SDS011;37253;48.736;9.294;2023-04-03T06:11:31;0.82;;;0.50;;
51190;SDS011;37253;48.736;9.294;2023-04-03T06:13:31;1.17;;;0.60;;
51190;SDS011;37253;48.736;9.294;2023-04-03T06:15:33;0.80;;;0.50;;
51190;SDS011;37253;48.736;9.294;2023-04-03T06:17:33;1.10;;;0.60;;
51190;SDS011;37253;48.736;9.294;2023-04-03T06:19:34;2.65;;;0.55;;
51190;SDS011;37253;48.736;9.294;2023-04-03T06:21:35;2.65;;;0.50;;
51190;SDS011;37253;48.736;9.294;2023-04-03T06:23:35;0.95;;;0.50;;
51190;SDS011;37253;48.736;9.294;2023-04-03T06:25:36;0.63;;;0.60;;
51190;SDS011;37253;48.736;9.294;2023-04-03T06:27:36;0.75;;;0.60;;
51190;SDS011;37253;48.736;9.294;2023-04-03T06:29:36;4.65;;;0.65;;
51190;SDS011;37253;48.736;9.294;2023-04-03T06:31:37;4.10;;;0.70;;
51190;SDS011;37253;48.736;9.294;2023-04-03T06:33:37;3.28;;;0.70;;
51190;SDS011;37253;48.736;9.294;2023-04-03T06:35:38;4.50;;;0.85;;
51190;SDS011;37253;48.736;9.294;2023-04-03T06:37:38;8.73;;;0.63;;
51190;SDS011;37253;48.736;9.294;2023-04-03T06:39:38;3.03;;;0.70;;
51190;SDS011;37253;48.736;9.294;2023-04-03T06:41:39;11.30;;;0.90;;
51190;SDS011;37253;48.736;9.294;2023-04-03T06:43:40;10.68;;;0.85;;
51190;SDS011;37253;48.736;9.294;2023-04-03T06:45:40;3.55;;;0.70;;
51190;SDS011;37253;48.736;9.294;2023-04-03T06:47:40;1.08;;;0.70;;
51190;SDS011;37253;48.736;9.294;2023-04-03T06:49:41;1.27;;;0.60;;
51190;SDS011;37253;48.736;9.294;2023-04-03T06:51:42;1.45;;;0.60;;
51190;SDS011;37253;48.736;9.294;2023-04-03T06:53:42;3.10;;;0.70;;
51190;SDS011;37253;48.736;9.294;2023-04-03T06:55:42;2.05;;;0.70;;
51190;SDS011;37253;48.736;9.294;2023-04-03T06:57:43;4.95;;;0.88;;
51190;SDS011;37253;48.736;9.294;2023-04-03T06:59:43;1.38;;;0.60;;
51190;SDS011;37253;48.736;9.294;2023-04-03T07:01:43;3.63;;;0.60;;
51190;SDS011;37253;48.736;9.294;2023-04-03T07:03:44;1.20;;;0.75;;
51190;SDS011;37253;48.736;9.294;2023-04-03T07:05:47;2.80;;;0.60;;
51190;SDS011;37253;48.736;9.294;2023-04-03T07:07:47;3.75;;;0.60;;
51190;SDS011;37253;48.736;9.294;2023-04-03T07:09:49;1.05;;;0.50;;
51190;SDS011;37253;48.736;9.294;2023-04-03T07:11:50;4.18;;;0.90;;
51190;SDS011;37253;48.736;9.294;2023-04-03T07:13:50;5.93;;;0.80;;
51190;SDS011;37253;48.736;9.294;2023-04-03T07:15:51;4.72;;;0.70;;
51190;SDS011;37253;48.736;9.294;2023-04-03T07:17:51;3.38;;;0.68;;
51190;SDS011;37253;48.736;9.294;2023-04-03T07:19:51;0.88;;;0.60;;
51190;SDS011;37253;48.736;9.294;2023-04-03T07:21:52;1.58;;;0.70;;
51190;SDS011;37253;48.736;9.294;2023-04-03T07:23:52;3.50;;;0.75;;
51190;SDS011;37253;48.736;9.294;2023-04-03T07:25:52;3.08;;;0.68;;
51190;SDS011;37253;48.736;9.294;2023-04-03T07:27:53;9.05;;;0.73;;
51190;SDS011;37253;48.736;9.294;2023-04-03T07:29:54;2.35;;;0.65;;
51190;SDS011;37253;48.736;9.294;2023-04-03T07:31:55;5.20;;;1.08;;
51190;SDS011;37253;48.736;9.294;2023-04-03T07:33:56;3.72;;;0.73;;
51190;SDS011;37253;48.736;9.294;2023-04-03T07:35:56;1.35;;;0.70;;
51190;SDS011;37253;48.736;9.294;2023-04-03T07:37:57;2.17;;;0.95;;
51190;SDS011;37253;48.736;9.294;2023-04-03T07:39:57;1.48;;;0.75;;
51190;SDS011;37253;48.736;9.294;2023-04-03T07:41:59;1.80;;;0.57;;
51190;SDS011;37253;48.736;9.294;2023-04-03T07:43:59;2.47;;;0.77;;
51190;SDS011;37253;48.736;9.294;2023-04-03T07:46:00;1.85;;;0.60;;
51190;SDS011;37253;48.736;9.294;2023-04-03T07:48:01;1.50;;;0.60;;
51190;SDS011;37253;48.736;9.294;2023-04-03T07:50:01;3.33;;;0.73;;
51190;SDS011;37253;48.736;9.294;2023-04-03T07:52:02;1.80;;;0.80;;
51190;SDS011;37253;48.736;9.294;2023-04-03T07:54:03;2.65;;;0.60;;
51190;SDS011;37253;48.736;9.294;2023-04-03T07:56:04;3.70;;;0.75;;
51190;SDS011;37253;48.736;9.294;2023-04-03T07:58:04;5.25;;;0.70;;
51190;SDS011;37253;48.736;9.294;2023-04-03T08:00:05;5.30;;;0.70;;
51190;SDS011;37253;48.736;9.294;2023-04-03T08:02:08;4.90;;;0.80;;
51190;SDS011;37253;48.736;9.294;2023-04-03T08:04:09;5.35;;;1.00;;
51190;SDS011;37253;48.736;9.294;2023-04-03T08:06:10;1.75;;;0.60;;
51190;SDS011;37253;48.736;9.294;2023-04-03T08:08:11;9.73;;;0.73;;
51190;SDS011;37253;48.736;9.294;2023-04-03T08:10:14;0.82;;;0.43;;
51190;SDS011;37253;48.736;9.294;2023-04-03T08:12:14;4.38;;;0.60;;
51190;SDS011;37253;48.736;9.294;2023-04-03T08:14:15;0.95;;;0.50;;
51190;SDS011;37253;48.736;9.294;2023-04-03T08:16:17;12.20;;;1.05;;
51190;SDS011;37253;48.736;9.294;2023-04-03T08:18:18;4.85;;;0.68;;
51190;SDS011;37253;48.736;9.294;2023-04-03T08:20:21;6.10;;;0.70;;
51190;SDS011;37253;48.736;9.294;2023-04-03T08:22:21;3.80;;;0.70;;
51190;SDS011;37253;48.736;9.294;2023-04-03T08:24:22;2.08;;;0.63;;
51190;SDS011;37253;48.736;9.294;2023-04-03T08:26:22;1.85;;;0.68;;
51190;SDS011;37253;48.736;9.294;2023-04-03T08:28:22;3.15;;;0.85;;
51190;SDS011;37253;48.736;9.294;2023-04-03T08:30:23;7.78;;;0.60;;
51190;SDS011;37253;48.736;9.294;2023-04-03T08:32:23;7.07;;;0.80;;
51190;SDS011;37253;48.736;9.294;2023-04-03T08:34:24;4.60;;;0.70;;
51190;SDS011;37253;48.736;9.294;2023-04-03T08:36:26;10.07;;;1.13;;
51190;SDS011;37253;48.736;9.294;2023-04-03T08:38:27;7.07;;;1.20;;
51190;SDS011;37253;48.736;9.294;2023-04-03T08:40:27;5.35;;;1.02;;
51190;SDS011;37253;48.736;9.294;2023-04-03T08:42:36;5.90;;;1.00;;
51190;SDS011;37253;48.736;9.294;2023-04-03T08:44:59;5.72;;;1.08;;
51190;SDS011;37253;48.736;9.294;2023-04-03T08:49:22;10.32;;;1.40;;
51190;SDS011;37253;48.736;9.294;2023-04-03T08:51:26;6.13;;;1.27;;
51190;SDS011;37253;48.736;9.294;2023-04-03T08:53:28;6.05;;;1.30;;
51190;SDS011;37253;48.736;9.294;2023-04-03T08:55:39;7.40;;;1.50;;
51190;SDS011;37253;48.736;9.294;2023-04-03T08:57:43;8.48;;;1.77;;
51190;SDS011;37253;48.736;9.294;2023-04-03T08:59:44;7.10;;;1.70;;
51190;SDS011;37253;48.736;9.294;2023-04-03T09:01:45;12.70;;;1.67;;
51190;SDS011;37253;48.736;9.294;2023-04-03T09:03:45;7.22;;;1.30;;
51190;SDS011;37253;48.736;9.294;2023-04-03T09:05:56;6.68;;;1.40;;
51190;SDS011;37253;48.736;9.294;2023-04-03T09:08:01;7.22;;;1.38;;
51190;SDS011;37253;48.736;9.294;2023-04-03T09:10:13;7.97;;;1.45;;
51190;SDS011;37253;48.736;9.294;2023-04-03T09:12:21;6.88;;;1.33;;
51190;SDS011;37253;48.736;9.294;2023-04-03T09:18:44;5.15;;;1.38;;
51190;SDS011;37253;48.736;9.294;2023-04-03T09:20:49;7.50;;;1.17;;
51190;SDS011;37253;48.736;9.294;2023-04-03T09:22:56;5.18;;;1.10;;
51190;SDS011;37253;48.736;9.294;2023-04-03T09:24:58;5.35;;;1.10;;
51190;SDS011;37253;48.736;9.294;2023-04-03T09:27:06;5.10;;;1.20;;
51190;SDS011;37253;48.736;9.294;2023-04-03T09:29:10;5.43;;;1.27;;
51190;SDS011;37253;48.736;9.294;2023-04-03T09:31:16;6.05;;;1.10;;
51190;SDS011;37253;48.736;9.294;2023-04-03T09:33:20;5.35;;;1.40;;
51190;SDS011;37253;48.736;9.294;2023-04-03T09:35:24;3.90;;;1.05;;
51190;SDS011;37253;48.736;9.294;2023-04-03T09:39:50;3.88;;;1.30;;
51190;SDS011;37253;48.736;9.294;2023-04-03T09:44:01;5.70;;;1.42;;
51190;SDS011;37253;48.736;9.294;2023-04-03T09:48:26;2.53;;;1.38;;
51190;SDS011;37253;48.736;9.294;2023-04-03T09:50:28;4.32;;;1.17;;
51190;SDS011;37253;48.736;9.294;2023-04-03T09:52:29;3.13;;;0.90;;
51190;SDS011;37253;48.736;9.294;2023-04-03T09:54:37;5.00;;;1.20;;
51190;SDS011;37253;48.736;9.294;2023-04-03T09:56:40;3.40;;;1.10;;
51190;SDS011;37253;48.736;9.294;2023-04-03T09:58:42;4.18;;;1.27;;
51190;SDS011;37253;48.736;9.294;2023-04-03T10:00:56;3.67;;;0.90;;
51190;SDS011;37253;48.736;9.294;2023-04-03T10:02:58;4.97;;;1.02;;
51190;SDS011;37253;48.736;9.294;2023-04-03T10:04:59;2.83;;;0.98;;
51190;SDS011;37253;48.736;9.294;2023-04-03T10:06:59;3.85;;;1.02;;
51190;SDS011;37253;48.736;9.294;2023-04-03T10:11:23;3.85;;;0.98;;
51190;SDS011;37253;48.736;9.294;2023-04-03T10:13:25;2.67;;;1.00;;
51190;SDS011;37253;48.736;9.294;2023-04-03T10:15:25;2.92;;;0.80;;
51190;SDS011;37253;48.736;9.294;2023-04-03T10:19:45;7.97;;;1.00;;
51190;SDS011;37253;48.736;9.294;2023-04-03T10:21:49;5.05;;;1.00;;
51190;SDS011;37253;48.736;9.294;2023-04-03T10:23:54;3.40;;;1.00;;
51190;SDS011;37253;48.736;9.294;2023-04-03T10:26:17;5.22;;;0.90;;
51190;SDS011;37253;48.736;9.294;2023-04-03T10:30:58;5.20;;;1.02;;
51190;SDS011;37253;48.736;9.294;2023-04-03T10:33:19;2.03;;;1.05;;
51190;SDS011;37253;48.736;9.294;2023-04-03T10:35:44;4.30;;;1.00;;
51190;SDS011;37253;48.736;9.294;2023-04-03T10:40:29;3.05;;;0.80;;
51190;SDS011;37253;48.736;9.294;2023-04-03T10:42:37;4.38;;;0.90;;
51190;SDS011;37253;48.736;9.294;2023-04-03T10:47:20;2.38;;;0.77;;
51190;SDS011;37253;48.736;9.294;2023-04-03T10:49:25;4.15;;;0.90;;
51190;SDS011;37253;48.736;9.294;2023-04-03T10:52:19;2.42;;;0.70;;
51190;SDS011;37253;48.736;9.294;2023-04-03T10:54:26;1.42;;;0.80;;
51190;SDS011;37253;48.736;9.294;2023-04-03T10:56:42;6.68;;;0.90;;
51190;SDS011;37253;48.736;9.294;2023-04-03T10:58:43;3.00;;;0.80;;
51190;SDS011;37253;48.736;9.294;2023-04-03T11:00:46;10.10;;;1.10;;
51190;SDS011;37253;48.736;9.294;2023-04-03T11:02:50;6.93;;;1.20;;
51190;SDS011;37253;48.736;9.294;2023-04-03T11:05:03;2.78;;;0.98;;
51190;SDS011;37253;48.736;9.294;2023-04-03T11:07:10;1.48;;;0.80;;
51190;SDS011;37253;48.736;9.294;2023-04-03T11:09:18;4.00;;;0.98;;
51190;SDS011;37253;48.736;9.294;2023-04-03T11:11:33;2.05;;;0.80;;
51190;SDS011;37253;48.736;9.294;2023-04-03T11:13:40;3.15;;;1.10;;
51190;SDS011;37253;48.736;9.294;2023-04-03T11:15:43;1.75;;;0.80;;
51190;SDS011;37253;48.736;9.294;2023-04-03T11:17:53;7.22;;;1.10;;
51190;SDS011;37253;48.736;9.294;2023-04-03T11:20:14;5.47;;;1.00;;
51190;SDS011;37253;48.736;9.294;2023-04-03T11:24:39;3.28;;;0.95;;
51190;SDS011;37253;48.736;9.294;2023-04-03T11:26:42;4.53;;;0.82;;
51190;SDS011;37253;48.736;9.294;2023-04-03T11:28:43;6.03;;;1.00;;
51190;SDS011;37253;48.736;9.294;2023-04-03T11:31:01;2.67;;;0.82;;
51190;SDS011;37253;48.736;9.294;2023-04-03T11:33:19;2.35;;;0.77;;
51190;SDS011;37253;48.736;9.294;2023-04-03T11:35:25;3.42;;;0.70;;
51190;SDS011;37253;48.736;9.294;2023-04-03T11:37:31;3.90;;;0.70;;
51190;SDS011;37253;48.736;9.294;2023-04-03T11:39:35;5.38;;;0.88;;
51190;SDS011;37253;48.736;9.294;2023-04-03T11:41:41;3.95;;;0.70;;
51190;SDS011;37253;48.736;9.294;2023-04-03T11:43:42;1.73;;;0.60;;
51190;SDS011;37253;48.736;9.294;2023-04-03T11:46:00;6.35;;;0.90;;
51190;SDS011;37253;48.736;9.294;2023-04-03T11:48:04;3.90;;;0.90;;
51190;SDS011;37253;48.736;9.294;2023-04-03T11:52:09;4.20;;;0.80;;
51190;SDS011;37253;48.736;9.294;2023-04-03T11:54:34;8.57;;;0.90;;
51190;SDS011;37253;48.736;9.294;2023-04-03T11:56:44;4.97;;;0.63;;
51190;SDS011;37253;48.736;9.294;2023-04-03T11:58:50;3.15;;;0.90;;
51190;SDS011;37253;48.736;9.294;2023-04-03T12:01:09;3.42;;;0.90;;
51190;SDS011;37253;48.736;9.294;2023-04-03T12:05:37;4.15;;;0.70;;
51190;SDS011;37253;48.736;9.294;2023-04-03T12:07:37;3.30;;;0.90;;
51190;SDS011;37253;48.736;9.294;2023-04-03T12:09:54;2.38;;;0.90;;
51190;SDS011;37253;48.736;9.294;2023-04-03T12:11:59;3.63;;;0.90;;
51190;SDS011;37253;48.736;9.294;2023-04-03T12:16:00;5.78;;;0.60;;
51190;SDS011;37253;48.736;9.294;2023-04-03T12:20:55;1.42;;;0.80;;
51190;SDS011;37253;48.736;9.294;2023-04-03T12:23:54;3.03;;;0.80;;
51190;SDS011;37253;48.736;9.294;2023-04-03T12:25:45;7.80;;;0.70;;
51190;SDS011;37253;48.736;9.294;2023-04-03T12:27:49;8.40;;;0.82;;
51190;SDS011;37253;48.736;9.294;2023-04-03T12:29:53;3.80;;;0.70;;
51190;SDS011;37253;48.736;9.294;2023-04-03T12:34:12;3.10;;;0.80;;
51190;SDS011;37253;48.736;9.294;2023-04-03T12:36:24;2.25;;;0.70;;
51190;SDS011;37253;48.736;9.294;2023-04-03T12:41:27;3.78;;;0.80;;
51190;SDS011;37253;48.736;9.294;2023-04-03T12:45:44;7.63;;;0.80;;
51190;SDS011;37253;48.736;9.294;2023-04-03T12:47:45;4.15;;;0.80;;
51190;SDS011;37253;48.736;9.294;2023-04-03T12:49:49;3.90;;;0.80;;
51190;SDS011;37253;48.736;9.294;2023-04-03T12:51:50;1.48;;;0.60;;
51190;SDS011;37253;48.736;9.294;2023-04-03T12:53:51;1.35;;;0.70;;
51190;SDS011;37253;48.736;9.294;2023-04-03T12:55:53;2.05;;;0.70;;
51190;SDS011;37253;48.736;9.294;2023-04-03T12:57:57;2.85;;;0.60;;
51190;SDS011;37253;48.736;9.294;2023-04-03T12:59:57;3.85;;;0.70;;
51190;SDS011;37253;48.736;9.294;2023-04-03T13:01:59;6.22;;;0.80;;
51190;SDS011;37253;48.736;9.294;2023-04-03T13:04:00;1.75;;;0.70;;
51190;SDS011;37253;48.736;9.294;2023-04-03T13:06:01;1.75;;;0.73;;
51190;SDS011;37253;48.736;9.294;2023-04-03T13:08:05;2.38;;;0.80;;
51190;SDS011;37253;48.736;9.294;2023-04-03T13:12:13;1.90;;;0.60;;